sensor_id;sensor_type;location;lat;lon;timestamp;P1;durP1;ratioP1;P2;durP2;ratioP2
20245;SDS011;10281;54.406;18.556;2023-01-10T00:00:08;14.27;;;10.20;;
20245;SDS011;10281;54.406;18.556;2023-01-10T00:02:35;14.53;;;10.10;;
20245;SDS011;10281;54.406;18.556;2023-01-10T00:05:02;14.67;;;10.57;;
20245;SDS011;10281;54.406;18.556;2023-01-10T00:07:28;12.87;;;9.43;;
20245;SDS011;10281;54.406;18.556;2023-01-10T00:09:55;14.10;;;9.90;;
20245;SDS011;10281;54.406;18.556;2023-01-10T00:12:22;13.97;;;10.23;;
20245;SDS011;10281;54.406;18.556;2023-01-10T00:14:54;13.03;;;9.87;;
20245;SDS011;10281;54.406;18.556;2023-01-10T00:17:21;14.50;;;10.13;;
20245;SDS011;10281;54.406;18.556;2023-01-10T00:19:47;13.50;;;9.70;;
20245;SDS011;10281;54.406;18.556;2023-01-10T00:22:14;13.13;;;9.87;;
20245;SDS011;10281;54.406;18.556;2023-01-10T00:24:42;13.60;;;9.10;;
20245;SDS011;10281;54.406;18.556;2023-01-10T00:27:09;13.07;;;9.53;;
20245;SDS011;10281;54.406;18.556;2023-01-10T00:29:37;12.67;;;9.13;;
20245;SDS011;10281;54.406;18.556;2023-01-10T00:32:04;11.93;;;8.93;;
20245;SDS011;10281;54.406;18.556;2023-01-10T00:34:30;11.80;;;8.90;;
20245;SDS011;10281;54.406;18.556;2023-01-10T00:36:57;12.27;;;8.97;;
20245;SDS011;10281;54.406;18.556;2023-01-10T00:39:24;11.60;;;8.40;;
20245;SDS011;10281;54.406;18.556;2023-01-10T00:41:52;11.30;;;8.73;;
20245;SDS011;10281;54.406;18.556;2023-01-10T00:44:24;13.47;;;9.07;;
20245;SDS011;10281;54.406;18.556;2023-01-10T00:46:51;12.27;;;8.27;;
20245;SDS011;10281;54.406;18.556;2023-01-10T00:49:18;11.07;;;8.27;;
20245;SDS011;10281;54.406;18.556;2023-01-10T00:51:45;11.37;;;8.37;;
20245;SDS011;10281;54.406;18.556;2023-01-10T00:54:12;11.67;;;8.83;;
20245;SDS011;10281;54.406;18.556;2023-01-10T00:56:40;11.83;;;9.20;;
20245;SDS011;10281;54.406;18.556;2023-01-10T00:59:06;10.40;;;7.70;;
20245;SDS011;10281;54.406;18.556;2023-01-10T01:01:34;9.67;;;7.60;;
20245;SDS011;10281;54.406;18.556;2023-01-10T01:04:00;12.20;;;8.17;;
20245;SDS011;10281;54.406;18.556;2023-01-10T01:06:27;11.40;;;7.77;;
20245;SDS011;10281;54.406;18.556;2023-01-10T01:08:54;12.93;;;8.27;;
20245;SDS011;10281;54.406;18.556;2023-01-10T01:11:20;12.80;;;8.50;;
20245;SDS011;10281;54.406;18.556;2023-01-10T01:13:47;12.00;;;8.80;;
20245;SDS011;10281;54.406;18.556;2023-01-10T01:16:14;10.43;;;7.60;;
20245;SDS011;10281;54.406;18.556;2023-01-10T01:18:40;11.60;;;8.43;;
20245;SDS011;10281;54.406;18.556;2023-01-10T01:21:07;12.30;;;7.90;;
20245;SDS011;10281;54.406;18.556;2023-01-10T01:23:34;11.03;;;8.17;;
20245;SDS011;10281;54.406;18.556;2023-01-10T01:26:01;11.90;;;8.07;;
20245;SDS011;10281;54.406;18.556;2023-01-10T01:28:28;9.50;;;7.07;;
20245;SDS011;10281;54.406;18.556;2023-01-10T01:30:54;12.13;;;7.97;;
20245;SDS011;10281;54.406;18.556;2023-01-10T01:33:21;11.07;;;7.60;;
20245;SDS011;10281;54.406;18.556;2023-01-10T01:35:48;12.50;;;7.47;;
20245;SDS011;10281;54.406;18.556;2023-01-10T01:38:15;10.87;;;7.40;;
20245;SDS011;10281;54.406;18.556;2023-01-10T01:40:43;10.17;;;7.57;;
20245;SDS011;10281;54.406;18.556;2023-01-10T01:45:49;14.83;;;7.73;;
20245;SDS011;10281;54.406;18.556;2023-01-10T01:48:34;13.43;;;8.07;;
20245;SDS011;10281;54.406;18.556;2023-01-10T01:51:07;10.60;;;7.73;;
20245;SDS011;10281;54.406;18.556;2023-01-10T01:53:42;12.07;;;7.67;;
20245;SDS011;10281;54.406;18.556;2023-01-10T01:56:15;8.63;;;6.87;;
20245;SDS011;10281;54.406;18.556;2023-01-10T01:58:52;9.10;;;6.90;;
20245;SDS011;10281;54.406;18.556;2023-01-10T02:01:23;12.47;;;7.53;;
20245;SDS011;10281;54.406;18.556;2023-01-10T02:03:51;10.50;;;7.40;;
20245;SDS011;10281;54.406;18.556;2023-01-10T02:06:20;10.60;;;7.03;;
20245;SDS011;10281;54.406;18.556;2023-01-10T02:08:52;12.50;;;7.73;;
20245;SDS011;10281;54.406;18.556;2023-01-10T02:11:20;10.90;;;8.00;;
20245;SDS011;10281;54.406;18.556;2023-01-10T02:13:47;11.43;;;8.07;;
20245;SDS011;10281;54.406;18.556;2023-01-10T02:16:15;9.47;;;7.47;;
20245;SDS011;10281;54.406;18.556;2023-01-10T02:18:41;10.73;;;7.40;;
20245;SDS011;10281;54.406;18.556;2023-01-10T02:21:18;9.93;;;7.37;;
20245;SDS011;10281;54.406;18.556;2023-01-10T02:27:05;11.67;;;8.33;;
20245;SDS011;10281;54.406;18.556;2023-01-10T02:29:44;13.03;;;8.93;;
20245;SDS011;10281;54.406;18.556;2023-01-10T02:32:19;11.40;;;8.07;;
20245;SDS011;10281;54.406;18.556;2023-01-10T02:34:59;11.03;;;8.00;;
20245;SDS011;10281;54.406;18.556;2023-01-10T02:40:29;11.37;;;7.63;;
20245;SDS011;10281;54.406;18.556;2023-01-10T02:43:01;11.23;;;7.20;;
20245;SDS011;10281;54.406;18.556;2023-01-10T02:45:29;13.43;;;7.20;;
20245;SDS011;10281;54.406;18.556;2023-01-10T02:48:07;10.43;;;7.80;;
20245;SDS011;10281;54.406;18.556;2023-01-10T02:50:42;14.40;;;7.63;;
20245;SDS011;10281;54.406;18.556;2023-01-10T02:53:16;11.37;;;7.30;;
20245;SDS011;10281;54.406;18.556;2023-01-10T02:58:39;11.27;;;7.47;;
20245;SDS011;10281;54.406;18.556;2023-01-10T03:01:32;11.50;;;7.47;;
20245;SDS011;10281;54.406;18.556;2023-01-10T03:06:59;10.23;;;6.97;;
20245;SDS011;10281;54.406;18.556;2023-01-10T03:09:34;8.87;;;7.10;;
20245;SDS011;10281;54.406;18.556;2023-01-10T03:12:11;9.57;;;6.93;;
20245;SDS011;10281;54.406;18.556;2023-01-10T03:14:40;8.27;;;6.13;;
20245;SDS011;10281;54.406;18.556;2023-01-10T03:17:09;8.43;;;6.63;;
20245;SDS011;10281;54.406;18.556;2023-01-10T03:19:39;12.70;;;6.70;;
20245;SDS011;10281;54.406;18.556;2023-01-10T03:22:09;10.47;;;6.83;;
20245;SDS011;10281;54.406;18.556;2023-01-10T03:24:39;13.10;;;7.30;;
20245;SDS011;10281;54.406;18.556;2023-01-10T03:27:17;10.77;;;7.33;;
20245;SDS011;10281;54.406;18.556;2023-01-10T03:29:51;10.23;;;7.17;;
20245;SDS011;10281;54.406;18.556;2023-01-10T03:32:22;9.00;;;6.43;;
20245;SDS011;10281;54.406;18.556;2023-01-10T03:34:51;10.60;;;7.17;;
20245;SDS011;10281;54.406;18.556;2023-01-10T03:37:23;10.53;;;6.97;;
20245;SDS011;10281;54.406;18.556;2023-01-10T03:42:47;11.90;;;7.57;;
20245;SDS011;10281;54.406;18.556;2023-01-10T03:45:35;11.57;;;6.97;;
20245;SDS011;10281;54.406;18.556;2023-01-10T03:48:03;10.90;;;7.80;;
20245;SDS011;10281;54.406;18.556;2023-01-10T03:50:32;11.53;;;7.60;;
20245;SDS011;10281;54.406;18.556;2023-01-10T03:53:00;11.60;;;8.37;;
20245;SDS011;10281;54.406;18.556;2023-01-10T03:55:27;12.33;;;7.70;;
20245;SDS011;10281;54.406;18.556;2023-01-10T03:57:55;10.63;;;7.83;;
20245;SDS011;10281;54.406;18.556;2023-01-10T04:00:22;16.37;;;8.03;;
20245;SDS011;10281;54.406;18.556;2023-01-10T04:02:50;11.03;;;7.67;;
20245;SDS011;10281;54.406;18.556;2023-01-10T04:05:17;11.23;;;7.57;;
20245;SDS011;10281;54.406;18.556;2023-01-10T04:07:44;9.40;;;7.27;;
20245;SDS011;10281;54.406;18.556;2023-01-10T04:10:12;11.23;;;8.10;;
20245;SDS011;10281;54.406;18.556;2023-01-10T04:12:39;14.97;;;8.53;;
20245;SDS011;10281;54.406;18.556;2023-01-10T04:15:06;11.37;;;7.87;;
20245;SDS011;10281;54.406;18.556;2023-01-10T04:17:33;13.13;;;8.73;;
20245;SDS011;10281;54.406;18.556;2023-01-10T04:19:59;11.53;;;8.87;;
20245;SDS011;10281;54.406;18.556;2023-01-10T04:22:26;11.23;;;8.00;;
20245;SDS011;10281;54.406;18.556;2023-01-10T04:24:52;12.17;;;8.00;;
20245;SDS011;10281;54.406;18.556;2023-01-10T04:27:19;12.43;;;8.23;;
20245;SDS011;10281;54.406;18.556;2023-01-10T04:29:46;11.57;;;8.20;;
20245;SDS011;10281;54.406;18.556;2023-01-10T04:32:12;18.37;;;10.40;;
20245;SDS011;10281;54.406;18.556;2023-01-10T04:34:39;20.37;;;12.10;;
20245;SDS011;10281;54.406;18.556;2023-01-10T04:37:06;18.90;;;9.83;;
20245;SDS011;10281;54.406;18.556;2023-01-10T04:39:32;12.40;;;8.13;;
20245;SDS011;10281;54.406;18.556;2023-01-10T04:41:59;12.33;;;8.97;;
20245;SDS011;10281;54.406;18.556;2023-01-10T04:44:26;12.10;;;8.10;;
20245;SDS011;10281;54.406;18.556;2023-01-10T04:46:52;11.57;;;8.00;;
20245;SDS011;10281;54.406;18.556;2023-01-10T04:49:19;12.43;;;8.47;;
20245;SDS011;10281;54.406;18.556;2023-01-10T04:51:46;14.80;;;9.30;;
20245;SDS011;10281;54.406;18.556;2023-01-10T04:54:13;13.00;;;8.77;;
20245;SDS011;10281;54.406;18.556;2023-01-10T04:56:39;13.63;;;9.53;;
20245;SDS011;10281;54.406;18.556;2023-01-10T04:59:07;15.13;;;8.93;;
20245;SDS011;10281;54.406;18.556;2023-01-10T05:01:35;12.10;;;8.83;;
20245;SDS011;10281;54.406;18.556;2023-01-10T05:04:03;13.53;;;9.10;;
20245;SDS011;10281;54.406;18.556;2023-01-10T05:06:33;11.33;;;8.57;;
20245;SDS011;10281;54.406;18.556;2023-01-10T05:08:59;15.17;;;8.73;;
20245;SDS011;10281;54.406;18.556;2023-01-10T05:11:26;13.30;;;9.50;;
20245;SDS011;10281;54.406;18.556;2023-01-10T05:13:52;17.90;;;11.23;;
20245;SDS011;10281;54.406;18.556;2023-01-10T05:16:19;13.20;;;9.30;;
20245;SDS011;10281;54.406;18.556;2023-01-10T05:18:46;12.70;;;9.20;;
20245;SDS011;10281;54.406;18.556;2023-01-10T05:21:12;17.63;;;8.30;;
20245;SDS011;10281;54.406;18.556;2023-01-10T05:23:39;13.73;;;8.20;;
20245;SDS011;10281;54.406;18.556;2023-01-10T05:26:06;11.83;;;9.03;;
20245;SDS011;10281;54.406;18.556;2023-01-10T05:28:36;14.37;;;9.13;;
20245;SDS011;10281;54.406;18.556;2023-01-10T05:31:05;12.10;;;7.77;;
20245;SDS011;10281;54.406;18.556;2023-01-10T05:33:34;14.27;;;8.83;;
20245;SDS011;10281;54.406;18.556;2023-01-10T05:36:01;13.13;;;8.90;;
20245;SDS011;10281;54.406;18.556;2023-01-10T05:38:29;11.50;;;8.10;;
20245;SDS011;10281;54.406;18.556;2023-01-10T05:40:57;11.77;;;8.10;;
20245;SDS011;10281;54.406;18.556;2023-01-10T05:43:24;12.90;;;9.00;;
20245;SDS011;10281;54.406;18.556;2023-01-10T05:45:52;14.20;;;9.03;;
20245;SDS011;10281;54.406;18.556;2023-01-10T05:48:18;13.70;;;8.50;;
20245;SDS011;10281;54.406;18.556;2023-01-10T05:50:45;13.33;;;9.13;;
20245;SDS011;10281;54.406;18.556;2023-01-10T05:53:14;13.00;;;9.10;;
20245;SDS011;10281;54.406;18.556;2023-01-10T05:55:40;12.10;;;8.97;;
20245;SDS011;10281;54.406;18.556;2023-01-10T05:58:07;13.20;;;8.93;;
20245;SDS011;10281;54.406;18.556;2023-01-10T06:00:35;15.67;;;10.27;;
20245;SDS011;10281;54.406;18.556;2023-01-10T06:03:04;16.67;;;10.93;;
20245;SDS011;10281;54.406;18.556;2023-01-10T06:05:31;15.43;;;9.63;;
20245;SDS011;10281;54.406;18.556;2023-01-10T06:07:59;16.87;;;11.90;;
20245;SDS011;10281;54.406;18.556;2023-01-10T06:10:26;18.93;;;12.17;;
20245;SDS011;10281;54.406;18.556;2023-01-10T06:12:53;18.20;;;13.10;;
20245;SDS011;10281;54.406;18.556;2023-01-10T06:15:20;19.67;;;12.63;;
20245;SDS011;10281;54.406;18.556;2023-01-10T06:17:46;15.93;;;12.40;;
20245;SDS011;10281;54.406;18.556;2023-01-10T06:20:13;18.53;;;15.53;;
20245;SDS011;10281;54.406;18.556;2023-01-10T06:22:40;18.10;;;14.43;;
20245;SDS011;10281;54.406;18.556;2023-01-10T06:25:09;14.17;;;9.70;;
20245;SDS011;10281;54.406;18.556;2023-01-10T06:27:39;15.90;;;9.70;;
20245;SDS011;10281;54.406;18.556;2023-01-10T06:30:07;13.07;;;8.80;;
20245;SDS011;10281;54.406;18.556;2023-01-10T06:32:35;12.80;;;8.73;;
20245;SDS011;10281;54.406;18.556;2023-01-10T06:35:02;14.90;;;9.43;;
20245;SDS011;10281;54.406;18.556;2023-01-10T06:37:29;11.73;;;8.37;;
20245;SDS011;10281;54.406;18.556;2023-01-10T06:39:56;14.33;;;9.60;;
20245;SDS011;10281;54.406;18.556;2023-01-10T06:42:23;15.40;;;9.17;;
20245;SDS011;10281;54.406;18.556;2023-01-10T06:44:50;13.73;;;8.67;;
20245;SDS011;10281;54.406;18.556;2023-01-10T06:47:16;11.43;;;8.23;;
20245;SDS011;10281;54.406;18.556;2023-01-10T06:49:43;12.77;;;8.93;;
20245;SDS011;10281;54.406;18.556;2023-01-10T06:52:10;13.07;;;8.17;;
20245;SDS011;10281;54.406;18.556;2023-01-10T06:54:36;13.90;;;8.80;;
20245;SDS011;10281;54.406;18.556;2023-01-10T06:57:04;10.47;;;8.07;;
20245;SDS011;10281;54.406;18.556;2023-01-10T06:59:30;12.73;;;8.50;;
20245;SDS011;10281;54.406;18.556;2023-01-10T07:01:57;15.37;;;8.63;;
20245;SDS011;10281;54.406;18.556;2023-01-10T07:04:24;29.50;;;18.80;;
20245;SDS011;10281;54.406;18.556;2023-01-10T07:06:52;17.77;;;12.27;;
20245;SDS011;10281;54.406;18.556;2023-01-10T07:09:18;14.07;;;8.43;;
20245;SDS011;10281;54.406;18.556;2023-01-10T07:11:45;13.23;;;8.60;;
20245;SDS011;10281;54.406;18.556;2023-01-10T07:14:12;12.70;;;9.77;;
20245;SDS011;10281;54.406;18.556;2023-01-10T07:16:38;14.53;;;8.87;;
20245;SDS011;10281;54.406;18.556;2023-01-10T07:19:05;14.37;;;8.43;;
20245;SDS011;10281;54.406;18.556;2023-01-10T07:21:32;16.17;;;8.00;;
20245;SDS011;10281;54.406;18.556;2023-01-10T07:23:59;15.07;;;9.00;;
20245;SDS011;10281;54.406;18.556;2023-01-10T07:26:25;11.97;;;7.83;;
20245;SDS011;10281;54.406;18.556;2023-01-10T07:28:52;13.13;;;8.60;;
20245;SDS011;10281;54.406;18.556;2023-01-10T07:31:19;11.73;;;8.23;;
20245;SDS011;10281;54.406;18.556;2023-01-10T07:33:49;11.70;;;8.10;;
20245;SDS011;10281;54.406;18.556;2023-01-10T07:36:16;13.87;;;8.93;;
20245;SDS011;10281;54.406;18.556;2023-01-10T07:38:44;14.10;;;8.47;;
20245;SDS011;10281;54.406;18.556;2023-01-10T07:41:10;14.67;;;9.07;;
20245;SDS011;10281;54.406;18.556;2023-01-10T07:43:37;15.43;;;8.83;;
20245;SDS011;10281;54.406;18.556;2023-01-10T07:46:04;15.77;;;9.00;;
20245;SDS011;10281;54.406;18.556;2023-01-10T07:48:35;13.87;;;8.83;;
20245;SDS011;10281;54.406;18.556;2023-01-10T07:51:02;14.47;;;9.20;;
20245;SDS011;10281;54.406;18.556;2023-01-10T07:53:30;13.90;;;8.57;;
20245;SDS011;10281;54.406;18.556;2023-01-10T07:55:58;15.90;;;8.80;;
20245;SDS011;10281;54.406;18.556;2023-01-10T07:58:26;16.97;;;8.80;;
20245;SDS011;10281;54.406;18.556;2023-01-10T08:00:57;14.73;;;9.23;;
20245;SDS011;10281;54.406;18.556;2023-01-10T08:03:24;15.00;;;9.20;;
20245;SDS011;10281;54.406;18.556;2023-01-10T08:06:02;16.00;;;9.37;;
20245;SDS011;10281;54.406;18.556;2023-01-10T08:08:30;17.20;;;9.63;;
20245;SDS011;10281;54.406;18.556;2023-01-10T08:10:59;19.57;;;10.37;;
20245;SDS011;10281;54.406;18.556;2023-01-10T08:13:27;17.73;;;10.30;;
20245;SDS011;10281;54.406;18.556;2023-01-10T08:15:54;19.73;;;10.73;;
20245;SDS011;10281;54.406;18.556;2023-01-10T08:18:21;20.60;;;11.43;;
20245;SDS011;10281;54.406;18.556;2023-01-10T08:20:49;19.90;;;11.73;;
20245;SDS011;10281;54.406;18.556;2023-01-10T08:23:17;25.80;;;11.53;;
20245;SDS011;10281;54.406;18.556;2023-01-10T08:25:44;22.20;;;12.00;;
20245;SDS011;10281;54.406;18.556;2023-01-10T08:28:11;20.70;;;11.83;;
20245;SDS011;10281;54.406;18.556;2023-01-10T08:30:38;22.27;;;13.57;;
20245;SDS011;10281;54.406;18.556;2023-01-10T08:33:05;32.40;;;18.47;;
20245;SDS011;10281;54.406;18.556;2023-01-10T08:35:37;28.30;;;19.30;;
20245;SDS011;10281;54.406;18.556;2023-01-10T08:38:06;23.67;;;16.33;;
20245;SDS011;10281;54.406;18.556;2023-01-10T08:40:33;24.87;;;15.37;;
20245;SDS011;10281;54.406;18.556;2023-01-10T08:43:01;27.87;;;16.63;;
20245;SDS011;10281;54.406;18.556;2023-01-10T08:45:29;22.43;;;13.77;;
20245;SDS011;10281;54.406;18.556;2023-01-10T08:47:56;23.17;;;13.60;;
20245;SDS011;10281;54.406;18.556;2023-01-10T08:50:23;21.73;;;14.07;;
20245;SDS011;10281;54.406;18.556;2023-01-10T08:52:50;23.53;;;14.20;;
20245;SDS011;10281;54.406;18.556;2023-01-10T08:55:17;21.40;;;13.53;;
20245;SDS011;10281;54.406;18.556;2023-01-10T08:57:44;24.47;;;13.50;;
20245;SDS011;10281;54.406;18.556;2023-01-10T09:00:11;27.57;;;13.77;;
20245;SDS011;10281;54.406;18.556;2023-01-10T09:02:38;21.73;;;14.67;;
20245;SDS011;10281;54.406;18.556;2023-01-10T09:05:05;23.27;;;13.87;;
20245;SDS011;10281;54.406;18.556;2023-01-10T09:07:32;24.97;;;14.90;;
20245;SDS011;10281;54.406;18.556;2023-01-10T09:09:59;21.90;;;14.10;;
20245;SDS011;10281;54.406;18.556;2023-01-10T09:12:25;22.47;;;13.50;;
20245;SDS011;10281;54.406;18.556;2023-01-10T09:14:58;23.33;;;14.13;;
20245;SDS011;10281;54.406;18.556;2023-01-10T09:17:24;21.33;;;13.30;;
20245;SDS011;10281;54.406;18.556;2023-01-10T09:19:51;21.87;;;14.37;;
20245;SDS011;10281;54.406;18.556;2023-01-10T09:22:18;22.37;;;13.37;;
20245;SDS011;10281;54.406;18.556;2023-01-10T09:24:44;39.17;;;15.40;;
20245;SDS011;10281;54.406;18.556;2023-01-10T09:27:11;29.63;;;14.83;;
20245;SDS011;10281;54.406;18.556;2023-01-10T09:29:37;24.53;;;14.27;;
20245;SDS011;10281;54.406;18.556;2023-01-10T09:32:04;23.67;;;14.67;;
20245;SDS011;10281;54.406;18.556;2023-01-10T09:34:31;23.57;;;13.60;;
20245;SDS011;10281;54.406;18.556;2023-01-10T09:36:58;29.00;;;16.87;;
20245;SDS011;10281;54.406;18.556;2023-01-10T09:39:25;22.33;;;14.50;;
20245;SDS011;10281;54.406;18.556;2023-01-10T09:41:57;27.40;;;15.47;;
20245;SDS011;10281;54.406;18.556;2023-01-10T09:44:38;25.30;;;15.07;;
20245;SDS011;10281;54.406;18.556;2023-01-10T09:47:15;25.47;;;14.10;;
20245;SDS011;10281;54.406;18.556;2023-01-10T09:50:18;23.60;;;14.87;;
20245;SDS011;10281;54.406;18.556;2023-01-10T09:52:43;21.07;;;12.93;;
20245;SDS011;10281;54.406;18.556;2023-01-10T09:55:30;24.30;;;12.97;;
20245;SDS011;10281;54.406;18.556;2023-01-10T09:58:00;21.17;;;12.30;;
20245;SDS011;10281;54.406;18.556;2023-01-10T10:00:39;20.97;;;12.83;;
20245;SDS011;10281;54.406;18.556;2023-01-10T10:03:13;20.63;;;12.07;;
20245;SDS011;10281;54.406;18.556;2023-01-10T10:05:49;17.60;;;12.07;;
20245;SDS011;10281;54.406;18.556;2023-01-10T10:08:17;20.70;;;12.07;;
20245;SDS011;10281;54.406;18.556;2023-01-10T10:11:06;21.07;;;12.00;;
20245;SDS011;10281;54.406;18.556;2023-01-10T10:13:55;18.07;;;11.27;;
20245;SDS011;10281;54.406;18.556;2023-01-10T10:16:43;20.67;;;12.27;;
20245;SDS011;10281;54.406;18.556;2023-01-10T10:22:07;16.83;;;11.13;;
20245;SDS011;10281;54.406;18.556;2023-01-10T10:27:40;20.33;;;13.07;;
20245;SDS011;10281;54.406;18.556;2023-01-10T10:30:18;20.27;;;11.13;;
20245;SDS011;10281;54.406;18.556;2023-01-10T10:32:49;23.87;;;14.00;;
20245;SDS011;10281;54.406;18.556;2023-01-10T10:35:26;23.33;;;14.23;;
20245;SDS011;10281;54.406;18.556;2023-01-10T10:38:01;19.83;;;13.13;;
20245;SDS011;10281;54.406;18.556;2023-01-10T10:40:32;19.87;;;13.03;;
20245;SDS011;10281;54.406;18.556;2023-01-10T10:43:06;24.00;;;16.03;;
20245;SDS011;10281;54.406;18.556;2023-01-10T10:45:34;21.87;;;15.00;;
20245;SDS011;10281;54.406;18.556;2023-01-10T10:51:01;18.93;;;14.17;;
20245;SDS011;10281;54.406;18.556;2023-01-10T10:53:30;18.83;;;12.73;;
20245;SDS011;10281;54.406;18.556;2023-01-10T10:55:58;18.10;;;12.47;;
20245;SDS011;10281;54.406;18.556;2023-01-10T10:58:27;19.90;;;12.13;;
20245;SDS011;10281;54.406;18.556;2023-01-10T11:00:57;17.63;;;11.10;;
20245;SDS011;10281;54.406;18.556;2023-01-10T11:03:27;22.33;;;11.93;;
20245;SDS011;10281;54.406;18.556;2023-01-10T11:05:56;20.07;;;11.20;;
20245;SDS011;10281;54.406;18.556;2023-01-10T11:08:25;17.10;;;11.13;;
20245;SDS011;10281;54.406;18.556;2023-01-10T11:10:57;19.23;;;12.57;;
20245;SDS011;10281;54.406;18.556;2023-01-10T11:13:42;19.87;;;12.50;;
20245;SDS011;10281;54.406;18.556;2023-01-10T11:16:22;19.13;;;12.53;;
20245;SDS011;10281;54.406;18.556;2023-01-10T11:18:45;22.33;;;13.23;;
20245;SDS011;10281;54.406;18.556;2023-01-10T11:21:15;19.63;;;12.63;;
20245;SDS011;10281;54.406;18.556;2023-01-10T11:23:48;16.90;;;12.63;;
20245;SDS011;10281;54.406;18.556;2023-01-10T11:26:22;20.33;;;12.33;;
20245;SDS011;10281;54.406;18.556;2023-01-10T11:31:30;19.43;;;12.40;;
20245;SDS011;10281;54.406;18.556;2023-01-10T11:34:05;18.03;;;12.43;;
20245;SDS011;10281;54.406;18.556;2023-01-10T11:36:28;21.23;;;13.50;;
20245;SDS011;10281;54.406;18.556;2023-01-10T11:39:00;20.57;;;13.17;;
20245;SDS011;10281;54.406;18.556;2023-01-10T11:41:28;18.63;;;12.87;;
20245;SDS011;10281;54.406;18.556;2023-01-10T11:46:36;22.30;;;13.63;;
20245;SDS011;10281;54.406;18.556;2023-01-10T11:49:09;23.83;;;13.27;;
20245;SDS011;10281;54.406;18.556;2023-01-10T11:51:48;24.40;;;13.63;;
20245;SDS011;10281;54.406;18.556;2023-01-10T11:54:18;21.40;;;13.73;;
20245;SDS011;10281;54.406;18.556;2023-01-10T11:56:53;27.10;;;15.33;;
20245;SDS011;10281;54.406;18.556;2023-01-10T11:59:23;21.53;;;14.27;;
20245;SDS011;10281;54.406;18.556;2023-01-10T12:02:14;24.20;;;15.23;;
20245;SDS011;10281;54.406;18.556;2023-01-10T12:04:43;25.53;;;15.77;;
20245;SDS011;10281;54.406;18.556;2023-01-10T12:07:12;21.83;;;14.60;;
20245;SDS011;10281;54.406;18.556;2023-01-10T12:09:40;24.73;;;14.83;;
20245;SDS011;10281;54.406;18.556;2023-01-10T12:12:15;24.53;;;15.73;;
20245;SDS011;10281;54.406;18.556;2023-01-10T12:14:47;25.00;;;15.10;;
20245;SDS011;10281;54.406;18.556;2023-01-10T12:17:19;25.53;;;15.17;;
20245;SDS011;10281;54.406;18.556;2023-01-10T12:19:46;22.07;;;14.43;;
20245;SDS011;10281;54.406;18.556;2023-01-10T12:22:14;26.40;;;15.17;;
20245;SDS011;10281;54.406;18.556;2023-01-10T12:24:42;25.53;;;16.03;;
20245;SDS011;10281;54.406;18.556;2023-01-10T12:27:11;24.77;;;15.23;;
20245;SDS011;10281;54.406;18.556;2023-01-10T12:29:40;26.57;;;16.90;;
20245;SDS011;10281;54.406;18.556;2023-01-10T12:32:18;30.10;;;17.87;;
20245;SDS011;10281;54.406;18.556;2023-01-10T12:34:49;27.10;;;18.10;;
20245;SDS011;10281;54.406;18.556;2023-01-10T12:37:22;36.77;;;22.10;;
20245;SDS011;10281;54.406;18.556;2023-01-10T12:39:55;36.80;;;22.57;;
20245;SDS011;10281;54.406;18.556;2023-01-10T12:42:34;30.03;;;18.90;;
20245;SDS011;10281;54.406;18.556;2023-01-10T12:45:24;28.27;;;19.33;;
20245;SDS011;10281;54.406;18.556;2023-01-10T12:47:58;26.23;;;17.40;;
20245;SDS011;10281;54.406;18.556;2023-01-10T12:50:27;24.13;;;17.47;;
20245;SDS011;10281;54.406;18.556;2023-01-10T12:55:35;28.67;;;18.80;;
20245;SDS011;10281;54.406;18.556;2023-01-10T12:58:05;26.23;;;18.17;;
20245;SDS011;10281;54.406;18.556;2023-01-10T13:00:40;29.17;;;19.60;;
20245;SDS011;10281;54.406;18.556;2023-01-10T13:03:10;29.77;;;19.87;;
20245;SDS011;10281;54.406;18.556;2023-01-10T13:05:39;29.83;;;19.83;;
20245;SDS011;10281;54.406;18.556;2023-01-10T13:08:10;29.23;;;19.80;;
20245;SDS011;10281;54.406;18.556;2023-01-10T13:10:40;31.57;;;20.00;;
20245;SDS011;10281;54.406;18.556;2023-01-10T13:16:11;29.97;;;19.40;;
20245;SDS011;10281;54.406;18.556;2023-01-10T13:18:58;31.17;;;20.10;;
20245;SDS011;10281;54.406;18.556;2023-01-10T13:21:29;25.10;;;17.40;;
20245;SDS011;10281;54.406;18.556;2023-01-10T13:24:00;27.63;;;18.53;;
20245;SDS011;10281;54.406;18.556;2023-01-10T13:29:22;27.17;;;18.73;;
20245;SDS011;10281;54.406;18.556;2023-01-10T13:31:51;24.50;;;17.40;;
20245;SDS011;10281;54.406;18.556;2023-01-10T13:34:22;28.73;;;18.77;;
20245;SDS011;10281;54.406;18.556;2023-01-10T13:36:54;27.10;;;17.17;;
20245;SDS011;10281;54.406;18.556;2023-01-10T13:39:26;27.00;;;17.63;;
20245;SDS011;10281;54.406;18.556;2023-01-10T13:42:30;27.50;;;17.97;;
20245;SDS011;10281;54.406;18.556;2023-01-10T13:47:58;25.20;;;17.30;;
20245;SDS011;10281;54.406;18.556;2023-01-10T13:56:26;27.23;;;17.53;;
20245;SDS011;10281;54.406;18.556;2023-01-10T13:58:42;26.10;;;17.30;;
20245;SDS011;10281;54.406;18.556;2023-01-10T14:03:55;25.53;;;17.30;;
20245;SDS011;10281;54.406;18.556;2023-01-10T14:06:34;27.87;;;18.37;;
20245;SDS011;10281;54.406;18.556;2023-01-10T14:09:05;30.53;;;19.50;;
20245;SDS011;10281;54.406;18.556;2023-01-10T14:11:51;27.43;;;19.53;;
20245;SDS011;10281;54.406;18.556;2023-01-10T14:14:22;34.43;;;20.90;;
20245;SDS011;10281;54.406;18.556;2023-01-10T14:16:55;31.30;;;19.63;;
20245;SDS011;10281;54.406;18.556;2023-01-10T14:19:26;31.00;;;21.13;;
20245;SDS011;10281;54.406;18.556;2023-01-10T14:21:57;43.17;;;27.07;;
20245;SDS011;10281;54.406;18.556;2023-01-10T14:24:27;243.63;;;134.57;;
20245;SDS011;10281;54.406;18.556;2023-01-10T14:26:58;125.77;;;66.97;;
20245;SDS011;10281;54.406;18.556;2023-01-10T14:29:28;60.10;;;38.50;;
20245;SDS011;10281;54.406;18.556;2023-01-10T14:31:58;75.03;;;47.53;;
20245;SDS011;10281;54.406;18.556;2023-01-10T14:34:27;43.63;;;28.33;;
20245;SDS011;10281;54.406;18.556;2023-01-10T14:36:58;49.57;;;29.03;;
20245;SDS011;10281;54.406;18.556;2023-01-10T14:39:28;48.23;;;26.37;;
20245;SDS011;10281;54.406;18.556;2023-01-10T14:41:59;39.57;;;24.63;;
20245;SDS011;10281;54.406;18.556;2023-01-10T14:44:30;61.10;;;31.83;;
20245;SDS011;10281;54.406;18.556;2023-01-10T14:46:59;45.10;;;27.27;;
20245;SDS011;10281;54.406;18.556;2023-01-10T14:49:29;45.00;;;28.23;;
20245;SDS011;10281;54.406;18.556;2023-01-10T14:52:31;41.03;;;24.03;;
20245;SDS011;10281;54.406;18.556;2023-01-10T14:54:46;40.70;;;23.37;;
20245;SDS011;10281;54.406;18.556;2023-01-10T14:57:17;40.53;;;23.93;;
20245;SDS011;10281;54.406;18.556;2023-01-10T14:59:45;35.50;;;20.73;;
20245;SDS011;10281;54.406;18.556;2023-01-10T15:02:14;36.37;;;20.27;;
20245;SDS011;10281;54.406;18.556;2023-01-10T15:04:53;32.80;;;17.87;;
20245;SDS011;10281;54.406;18.556;2023-01-10T15:07:24;34.73;;;18.93;;
20245;SDS011;10281;54.406;18.556;2023-01-10T15:09:53;32.10;;;17.83;;
20245;SDS011;10281;54.406;18.556;2023-01-10T15:12:22;30.03;;;17.60;;
20245;SDS011;10281;54.406;18.556;2023-01-10T15:14:54;31.30;;;17.83;;
20245;SDS011;10281;54.406;18.556;2023-01-10T15:17:21;34.17;;;19.30;;
20245;SDS011;10281;54.406;18.556;2023-01-10T15:19:50;31.70;;;17.73;;
20245;SDS011;10281;54.406;18.556;2023-01-10T15:22:23;33.03;;;18.70;;